Date,TemperatureHighF,TemperatureAvgF,TemperatureLowF,DewpointHighF,DewpointAvgF,DewpointLowF,HumidityHigh,HumidityAvg,HumidityLow,PressureMaxIn,PressureMinIn,WindSpeedMaxMPH,WindSpeedAvgMPH,GustSpeedMaxMPH,PrecipitationSumIn
2012-1-1,56.5,47.3,39.2,50.5,45.0,38.9,99,92,71,30.15,29.70,14,5,14,0.07
2012-1-2,50.0,39.4,30.6,49.4,25.7,19.2,99,59,43,29.87,29.70,30,9,30,0.01
2012-1-3,32.4,26.5,16.2,25.0,10.7,-3.8,76,52,38,30.18,29.84,22,8,22,0.01
2012-1-4,29.1,17.4,11.5,6.4,0.8,-4.2,61,48,28,30.28,30.09,21,7,21,0.00
2012-1-5,42.4,34.9,26.8,28.5,24.6,22.0,99,67,53,30.03,29.88,22,5,22,0.00
2012-1-6,58.3,44.5,26.8,36.8,33.2,23.0,94,67,43,30.00,29.77,19,5,19,0.00
2012-1-7,66.6,52.0,36.5,44.3,37.3,31.4,84,59,42,30.01,29.74,21,5,21,0.00
2012-1-8,52.2,42.8,33.3,34.0,28.4,19.3,73,57,44,30.35,30.00,15,4,15,0.00
2012-1-9,44.2,35.4,29.5,31.3,24.8,18.1,84,66,51,30.36,30.02,8,2,8,0.00
2012-1-10,50.7,39.2,30.2,35.7,30.9,26.8,99,74,50,30.04,29.90,21,5,21,0.00
2012-1-11,51.8,40.2,25.9,45.8,36.0,25.7,99,86,58,30.13,29.79,13,3,13,0.18
2012-1-12,52.2,46.5,43.9,51.9,46.3,43.6,99,99,99,29.79,29.39,19,3,19,0.65
2012-1-13,50.9,38.5,29.3,50.6,30.8,15.3,99,75,48,29.88,29.28,35,12,35,0.05
2012-1-14,35.2,30.1,25.2,20.7,18.4,16.1,74,62,49,30.12,29.88,22,8,22,0.00
2012-1-15,28.9,22.8,16.7,19.5,5.0,-3.2,84,48,30,30.61,30.11,21,6,21,0.00
2012-1-16,39.9,28.0,13.1,32.3,16.7,0.9,81,63,44,30.65,30.19,14,4,14,0.00
2012-1-17,55.6,44.7,37.0,54.0,44.0,32.5,99,98,76,30.20,29.58,21,7,21,0.24
2012-1-18,56.5,40.8,24.6,55.1,25.0,9.6,97,55,34,30.20,29.59,29,10,29,0.02
2012-1-19,39.2,30.0,18.1,29.7,21.8,11.2,80,71,57,30.27,29.97,13,3,13,0.00
2012-1-20,35.8,32.0,26.8,28.7,15.6,6.4,80,52,32,30.33,29.98,17,5,17,0.00
2012-1-21,35.1,30.3,26.6,34.8,27.4,10.3,99,91,44,30.31,29.95,12,1,12,0.15
2012-1-22,38.1,31.1,23.4,37.7,30.3,21.6,99,97,86,30.54,30.30,8,1,8,0.08
2012-1-23,54.3,47.7,37.6,53.9,47.4,37.3,99,99,99,30.44,29.91,14,3,14,0.14
2012-1-24,58.5,50.1,41.5,55.0,44.9,35.2,99,83,59,30.17,29.90,19,6,19,0.00
2012-1-25,51.6,42.3,36.5,35.5,33.2,30.4,94,71,53,30.34,30.16,16,4,16,0.00
2012-1-26,48.9,40.4,35.1,48.5,39.1,31.6,99,95,81,30.26,29.81,10,2,10,0.01
2012-1-27,62.1,51.9,43.2,61.8,48.9,34.8,99,90,69,29.89,29.35,32,8,32,0.24
2012-1-28,50.4,43.2,34.5,39.6,34.1,22.8,89,71,46,30.09,29.89,20,5,20,0.00
2012-1-29,47.8,39.3,28.2,28.4,19.5,14.6,64,45,32,30.25,29.92,20,7,20,0.00
2012-1-30,41.4,37.5,30.2,29.2,20.6,15.9,66,51,37,30.34,30.04,26,9,26,0.00
2012-1-31,64.4,49.8,34.2,40.4,34.9,19.7,80,58,37,30.28,30.03,17,6,17,0.00
2012-2-1,67.3,55.4,46.2,50.7,43.9,36.8,91,66,51,30.05,29.88,24,7,24,0.02
2012-2-2,51.4,44.2,36.9,44.0,35.5,24.3,90,72,59,30.25,29.98,17,4,17,0.00
2012-2-3,51.6,37.8,29.1,27.0,23.3,21.3,83,57,35,30.46,30.24,20,4,20,0.00
2012-2-4,46.0,38.7,29.5,31.1,28.2,23.3,90,66,50,30.38,30.09,8,2,8,0.00
2012-2-5,47.5,37.0,29.7,30.8,25.6,19.5,74,63,43,30.20,30.09,11,3,11,0.00
2012-2-6,54.5,40.0,27.0,33.6,27.8,19.9,85,63,39,30.20,29.99,21,7,21,0.00
2012-2-7,57.2,42.7,34.7,34.1,31.2,28.0,87,66,37,30.23,29.98,12,5,20,0.00
2012-2-8,42.6,35.2,32.0,33.7,29.8,23.3,99,81,60,30.32,30.09,6,2,8,0.00
2012-2-9,47.8,36.4,29.3,34.7,28.8,24.9,99,77,45,30.17,30.06,18,4,18,0.07
2012-2-10,50.4,39.0,27.5,42.2,31.2,23.5,99,75,45,30.17,29.92,15,4,15,0.00
2012-2-11,36.9,34.5,32.0,36.4,33.8,28.7,99,97,79,29.93,29.56,17,3,17,0.13
2012-2-12,35.1,27.6,19.4,31.8,14.9,3.7,99,59,43,30.02,29.65,25,11,25,0.01
2012-2-13,45.7,32.5,25.3,24.1,20.1,15.5,73,61,39,30.09,29.99,18,7,18,0.00
2012-2-14,53.1,41.2,33.3,41.0,31.0,21.4,97,68,39,30.13,30.01,16,3,17,0.05
2012-2-15,50.5,42.4,35.4,45.1,41.2,34.7,99,95,79,30.29,30.05,10,2,10,0.01
2012-2-16,45.9,41.2,30.4,44.7,40.8,30.1,99,98,92,30.30,30.02,9,1,9,0.11
2012-2-17,56.3,45.7,33.4,49.6,37.9,25.4,99,77,42,30.03,29.92,17,4,17,0.01
2012-2-18,54.5,41.8,31.5,41.2,30.8,23.0,99,67,41,30.12,29.88,16,4,16,0.01
2012-2-19,50.5,39.0,30.6,36.1,30.1,26.0,98,72,42,30.09,29.93,11,2,11,0.01
2012-2-20,52.5,38.6,27.3,28.3,21.8,15.0,75,53,28,30.35,29.95,17,5,17,0.00
2012-2-21,50.5,38.7,23.7,44.6,33.1,20.4,99,82,51,30.37,29.86,17,4,17,0.00
2012-2-22,62.8,47.4,34.2,48.1,41.3,33.9,99,83,36,29.87,29.48,15,4,15,0.00
2012-2-23,65.7,53.6,45.3,51.4,42.5,29.1,99,71,31,29.76,29.38,26,7,26,0.00
2012-2-24,46.9,44.2,40.8,46.7,43.1,38.3,99,96,76,29.74,29.30,28,6,28,0.33
2012-2-25,45.5,41.0,35.4,38.3,27.3,18.7,80,58,43,30.05,29.45,39,16,39,0.35
2012-2-26,50.9,37.4,28.6,28.8,18.8,13.2,88,49,32,30.46,30.05,24,6,24,0.00
2012-2-27,57.0,45.0,28.8,44.9,37.8,23.8,99,77,53,30.45,30.10,15,5,15,0.00
2012-2-28,58.5,45.4,36.0,38.7,30.2,23.8,93,57,32,30.39,30.13,17,4,17,0.00
2012-2-29,48.2,42.5,36.0,47.9,42.0,35.5,99,98,91,30.38,29.71,10,2,10,0.52
2012-3-1,49.8,43.1,37.8,47.9,42.7,37.5,99,99,92,29.96,29.62,14,3,14,0.18
2012-3-2,45.5,41.3,36.7,44.9,40.3,36.4,99,96,87,30.12,29.77,24,4,24,0.08
2012-3-3,59.7,52.1,45.1,55.1,43.9,26.5,99,77,39,29.77,29.46,24,7,24,0.17
2012-3-4,48.0,41.5,35.1,29.7,25.1,20.7,68,52,37,29.78,29.58,20,6,20,0.00
2012-3-5,49.5,38.3,29.8,27.1,19.6,6.0,75,48,32,30.39,29.77,18,7,18,0.00
2012-3-6,45.9,37.4,24.3,32.5,21.2,6.8,86,54,28,30.66,30.39,14,5,14,0.00
2012-3-7,68.4,50.0,36.0,50.3,40.6,28.7,98,73,34,30.62,30.34,15,6,15,0.00
2012-3-8,72.9,60.5,52.2,59.1,54.3,49.9,97,81,56,30.35,29.87,32,10,32,0.00
2012-3-9,63.7,48.2,37.2,57.9,33.7,20.5,99,60,35,30.28,29.84,27,8,27,0.05
2012-3-10,46.6,37.2,29.3,27.0,16.8,8.4,74,45,29,30.55,30.27,18,5,18,0.00
2012-3-11,65.3,46.9,32.5,43.3,32.0,23.2,80,59,33,30.56,30.35,17,6,17,0.00
2012-3-12,74.7,55.3,41.2,51.5,43.1,35.6,86,65,36,30.38,30.13,14,5,14,0.00
2012-3-13,78.1,62.7,52.3,65.1,58.4,49.4,99,87,59,30.14,29.54,17,5,17,0.15
2012-3-14,77.0,62.8,46.0,62.1,48.0,28.8,99,67,18,30.18,29.59,17,4,17,0.00
2012-3-15,49.5,45.9,44.2,49.0,45.5,42.4,99,99,92,30.34,30.16,11,4,11,0.00
2012-3-16,49.1,46.0,44.2,48.7,45.8,43.8,99,99,99,30.29,30.12,13,3,13,0.02
2012-3-17,59.2,48.6,41.5,55.5,47.3,41.3,99,95,80,30.37,30.18,8,2,8,0.00
2012-3-18,62.8,51.2,45.1,55.8,49.4,44.9,99,94,76,30.38,30.21,8,3,8,0.00
2012-3-19,76.1,59.4,45.5,62.7,54.0,45.2,99,85,45,30.23,30.15,11,3,11,0.00
2012-3-20,63.9,55.3,50.9,62.0,54.9,50.6,99,99,92,30.32,30.22,8,2,8,0.01
2012-3-21,62.1,56.5,53.2,61.6,56.3,53.0,99,99,99,30.35,30.27,7,2,7,0.01
2012-3-22,70.7,59.8,55.2,67.9,59.3,55.0,99,98,86,30.29,30.08,8,2,8,0.00
2012-3-23,74.8,60.9,52.2,69.8,57.6,51.9,99,90,71,30.09,30.01,14,2,14,0.00
2012-3-24,62.1,53.0,48.4,55.0,49.6,47.6,99,89,64,30.08,29.94,16,3,16,0.22
2012-3-25,51.6,47.4,43.0,51.4,47.2,42.7,99,99,99,29.96,29.72,14,3,14,0.11
2012-3-26,58.5,48.6,35.2,53.8,31.3,7.0,99,59,22,30.12,29.68,26,9,26,0.07
2012-3-27,57.9,41.7,30.0,34.2,9.6,1.2,71,29,12,30.29,30.12,19,5,19,0.00
2012-3-28,72.3,56.0,40.1,56.9,43.6,25.7,79,64,46,30.17,29.52,21,7,21,0.01
2012-3-29,63.7,55.3,42.3,56.4,41.9,30.6,80,61,46,30.02,29.55,21,8,21,0.01
2012-3-30,56.8,46.8,36.5,41.5,33.3,26.5,85,61,40,30.09,29.93,12,4,12,0.00
2012-3-31,46.6,43.3,40.8,44.7,42.6,40.6,99,98,81,29.99,29.82,14,3,14,0.46
2012-4-1,53.6,46.7,41.5,48.8,45.2,41.3,99,95,78,29.91,29.60,10,4,10,0.08
2012-4-2,62.8,50.4,41.4,46.0,35.1,18.9,99,62,25,29.87,29.55,24,7,24,0.09
2012-4-3,71.2,53.4,37.9,35.2,23.8,17.3,54,33,19,29.95,29.76,19,6,19,0.00
2012-4-4,76.1,61.5,51.6,40.8,33.7,23.2,66,37,20,29.78,29.49,23,5,23,0.00
2012-4-5,61.9,50.3,38.1,42.3,33.2,24.9,81,53,35,29.91,29.71,20,4,20,0.00
2012-4-6,64.4,50.6,36.5,32.1,26.2,16.9,71,41,21,30.02,29.87,17,5,17,0.00
2012-4-7,66.4,52.3,37.6,24.1,21.8,15.9,50,32,18,30.09,29.94,21,6,21,0.00
2012-4-8,70.9,57.0,41.5,37.7,26.7,19.9,56,32,19,30.02,29.65,24,8,24,0.00
2012-4-9,66.7,57.9,49.8,36.5,30.1,23.9,49,35,25,29.77,29.64,36,12,36,0.06
2012-4-10,64.2,54.7,46.9,41.4,33.5,27.6,73,46,29,29.81,29.67,23,7,23,0.00
2012-4-11,58.6,50.1,39.6,38.2,33.9,29.4,87,55,37,29.90,29.77,18,6,18,0.00
2012-4-12,63.0,52.1,41.9,41.9,37.8,32.9,88,61,35,30.12,29.89,17,5,17,0.00
2012-4-13,66.9,53.8,41.2,43.0,37.3,30.8,76,55,31,30.22,30.11,11,4,11,0.00
2012-4-14,76.5,60.9,45.5,55.0,41.3,33.6,71,50,27,30.22,30.02,20,5,20,0.00
2012-4-15,82.2,68.7,59.5,64.6,57.6,47.4,90,68,54,30.04,29.93,19,5,19,0.00
2012-4-16,87.3,72.6,58.6,72.3,65.1,58.4,99,79,56,30.03,29.89,11,3,11,0.00
2012-4-17,86.7,74.9,61.3,65.1,51.8,35.8,85,49,21,30.12,29.89,17,5,17,0.00
2012-4-18,65.1,57.0,51.8,47.5,40.6,32.5,85,55,37,30.25,30.12,11,3,11,0.00
2012-4-19,69.8,57.4,50.0,57.0,52.5,47.6,99,85,56,30.14,30.00,11,2,11,0.00
2012-4-20,65.5,56.2,45.1,61.3,54.4,44.9,99,94,81,30.04,29.84,8,2,8,0.01
2012-4-21,77.4,63.3,55.4,68.3,61.1,55.1,99,93,73,29.85,29.65,12,3,13,0.02
2012-4-22,62.1,53.0,50.0,61.8,52.8,49.6,99,99,98,29.76,29.20,16,4,16,2.28
2012-4-23,58.5,51.5,41.9,58.2,49.9,40.6,99,94,81,29.43,29.09,14,5,14,0.08
2012-4-24,63.3,50.2,39.0,52.7,39.6,31.3,99,71,33,29.71,29.42,22,6,22,0.00
2012-4-25,67.8,52.3,36.1,53.6,40.2,33.2,99,66,34,29.90,29.71,14,2,17,0.00
2012-4-26,61.7,50.9,37.0,60.2,50.4,36.8,99,98,89,29.92,29.58,8,1,8,0.00
2012-4-27,60.3,53.0,40.3,59.1,39.3,29.1,99,62,40,30.16,29.57,26,9,26,0.02
2012-4-28,64.4,49.1,34.5,40.8,33.4,28.1,87,57,34,30.26,30.11,14,5,14,0.00
2012-4-29,70.0,55.9,39.4,42.6,31.4,20.8,88,46,18,30.24,30.05,24,5,24,0.00
2012-4-30,62.4,52.1,36.1,51.5,37.4,22.7,93,60,35,30.35,30.20,11,3,11,0.00
2012-5-1,80.4,60.5,53.4,68.8,59.1,51.5,99,95,65,30.21,29.95,16,3,16,0.41
2012-5-2,54.9,51.9,50.4,54.6,51.7,50.1,99,99,99,30.17,30.06,11,4,11,0.69
2012-5-3,60.8,54.8,51.3,60.5,54.6,51.0,99,99,99,30.20,30.06,11,2,11,0.11
2012-5-4,83.8,62.1,54.1,75.2,60.8,53.9,99,96,74,30.09,29.82,13,2,13,0.02
2012-5-5,60.1,56.5,54.1,59.6,56.3,53.9,99,99,99,30.03,29.82,8,2,8,0.34
2012-5-6,64.9,56.0,49.1,60.0,54.6,48.8,99,95,77,30.11,30.01,10,3,10,0.00
2012-5-7,68.4,56.0,47.1,64.5,53.4,46.9,99,92,70,30.14,30.07,8,2,8,0.00
2012-5-8,72.3,62.5,55.2,64.5,60.0,54.5,99,92,73,30.10,29.80,17,4,17,0.00
2012-5-9,68.2,64.3,60.3,67.9,64.1,59.8,99,99,99,29.82,29.53,12,2,12,0.99
2012-5-10,68.9,62.4,50.2,61.2,49.4,40.9,99,65,42,29.85,29.51,23,7,23,0.24
2012-5-11,75.4,60.6,47.3,47.4,43.6,38.0,94,58,28,30.12,29.84,19,6,19,0.00
2012-5-12,83.7,66.4,47.7,60.5,50.8,42.6,97,60,35,30.24,30.11,13,3,13,0.00
2012-5-13,86.7,71.8,59.5,69.6,60.5,52.2,87,69,46,30.19,30.06,17,4,17,0.00
2012-5-14,77.7,67.3,61.9,69.0,64.7,60.9,99,91,73,30.15,30.08,11,3,11,0.00
2012-5-15,74.7,63.4,60.1,73.9,63.0,59.8,99,99,93,30.11,29.91,8,2,8,0.39
2012-5-16,84.0,70.1,59.9,78.0,68.4,59.6,99,95,74,29.93,29.80,8,2,8,0.04
2012-5-17,77.0,65.6,52.3,67.7,53.8,44.4,99,69,40,30.12,29.86,12,3,12,0.00
2012-5-18,71.1,60.2,47.1,63.8,52.0,46.9,99,77,50,30.22,30.10,13,2,13,0.00
2012-5-19,79.2,63.2,47.3,60.6,53.0,47.0,99,73,42,30.16,30.10,12,2,12,0.00
2012-5-20,75.4,63.1,52.0,64.8,57.2,47.5,99,84,45,30.22,30.11,14,3,14,0.00
2012-5-21,62.4,60.7,59.2,62.2,60.4,58.9,99,99,99,30.18,29.94,10,2,10,1.04
2012-5-22,73.6,64.7,60.8,72.8,64.4,60.5,99,99,95,29.94,29.78,8,2,8,0.15
2012-5-23,82.0,70.9,63.5,78.6,69.6,63.2,99,96,79,30.01,29.83,8,2,8,0.00
2012-5-24,71.8,66.1,63.9,71.3,65.8,63.6,99,99,99,30.15,30.00,8,2,8,0.07
2012-5-25,84.2,69.8,63.3,81.4,69.4,63.1,99,99,87,30.16,30.08,8,2,8,0.01
2012-5-26,90.7,76.5,64.6,82.8,74.4,64.3,99,94,74,30.12,30.03,11,2,11,0.00
2012-5-27,84.2,75.4,69.6,78.0,72.0,65.2,99,90,62,30.14,29.98,8,2,8,0.00
2012-5-28,92.8,79.0,71.6,80.7,75.1,71.3,99,89,66,29.99,29.88,11,3,11,0.00
2012-5-29,95.0,82.9,72.0,84.4,78.7,71.5,99,88,65,29.90,29.67,21,4,21,0.00
2012-5-30,81.5,73.9,66.4,78.1,72.9,65.9,99,97,68,29.77,29.68,8,1,8,0.01
2012-5-31,87.1,74.5,62.2,74.6,63.4,56.9,99,72,40,29.91,29.66,14,3,14,0.01
2012-6-1,73.8,66.7,59.2,70.8,64.6,58.9,99,93,76,29.98,29.71,17,5,17,0.17
2012-6-2,80.4,70.0,60.4,69.5,62.5,53.2,99,79,54,29.76,29.61,20,5,20,1.09
2012-6-3,79.9,66.0,57.0,67.0,58.8,54.5,99,80,49,29.76,29.61,25,6,25,0.08
2012-6-4,68.7,59.4,55.6,64.3,58.0,54.7,99,95,72,29.77,29.57,11,4,11,0.59
2012-6-5,71.8,60.7,51.3,58.6,54.8,51.0,99,82,59,29.93,29.75,12,3,12,0.00
2012-6-6,76.5,63.6,51.3,67.8,59.2,51.0,99,87,64,29.98,29.91,8,2,8,0.01
2012-6-7,79.3,67.1,56.8,70.7,63.3,56.6,99,89,62,29.96,29.89,9,3,9,0.01
2012-6-8,89.1,72.1,58.3,74.6,63.9,58.0,99,78,42,29.93,29.80,13,3,13,0.00
2012-6-9,88.5,73.9,64.0,72.3,64.4,60.1,88,73,52,29.96,29.84,11,3,11,0.00
2012-6-10,86.5,74.7,65.7,78.7,71.0,65.4,99,89,67,30.16,29.95,8,2,8,0.05
2012-6-11,77.9,70.6,66.0,74.9,69.0,65.8,99,95,80,30.22,30.12,9,3,9,0.00
2012-6-12,75.6,68.9,66.2,75.3,68.6,65.9,99,99,99,30.15,29.84,12,3,12,0.57
2012-6-13,72.5,67.0,64.2,72.2,66.7,64.0,99,99,99,30.02,29.79,11,4,11,0.28
2012-6-14,74.7,67.7,60.6,72.6,67.2,60.4,99,98,91,30.23,30.02,13,2,13,0.01
2012-6-15,83.3,69.0,54.9,69.8,61.2,54.6,99,79,49,30.27,30.19,10,2,10,0.00
2012-6-16,79.7,69.1,55.0,70.2,63.0,54.8,99,83,54,30.30,30.21,11,3,11,0.00
2012-6-17,73.2,65.8,59.0,64.9,62.2,58.7,99,89,69,30.21,30.08,10,3,10,0.00
2012-6-18,73.4,65.6,59.0,66.6,62.7,58.7,99,91,72,30.14,30.06,10,2,10,0.00
2012-6-19,85.6,71.5,63.0,78.0,69.7,62.5,99,94,78,30.16,30.05,11,2,11,0.00
2012-6-20,100.8,84.8,68.7,86.0,78.1,68.5,99,82,56,30.06,29.91,11,4,11,0.00
2012-6-21,101.3,89.1,77.9,84.5,79.8,75.0,99,76,52,29.92,29.75,12,4,12,0.00
2012-6-22,98.2,82.2,70.7,86.1,78.5,70.4,99,90,61,29.82,29.72,17,2,17,0.27
2012-6-23,92.1,78.0,68.4,77.3,68.8,61.8,99,76,45,29.96,29.77,12,4,12,0.01
2012-6-24,88.9,75.3,61.5,74.1,69.0,61.3,99,82,57,29.99,29.87,8,2,8,0.00
2012-6-25,86.2,71.5,62.8,77.3,69.7,62.5,99,95,60,29.88,29.60,23,2,23,0.99
2012-6-26,76.1,66.5,55.4,62.7,58.5,53.6,99,77,59,29.76,29.66,22,5,22,0.01
2012-6-27,88.0,74.3,61.2,63.8,58.7,53.6,81,60,39,29.83,29.71,17,6,17,0.00
2012-6-28,96.3,80.5,66.7,74.2,66.9,59.2,83,64,43,29.83,29.69,14,4,14,0.00
2012-6-29,99.0,84.1,70.3,85.6,77.8,69.4,99,82,62,29.73,29.57,14,4,14,0.12
2012-6-30,100.2,86.0,73.4,85.9,76.9,68.3,99,77,42,29.77,29.62,14,4,14,0.00
2012-7-1,100.2,85.6,72.9,81.7,76.5,69.5,99,76,51,29.83,29.71,14,4,14,0.00
2012-7-2,94.3,81.4,67.8,73.4,67.7,63.8,99,66,42,29.90,29.81,14,3,14,0.00
2012-7-3,92.8,80.5,67.6,80.1,71.9,63.6,99,77,50,29.94,29.80,9,2,9,0.00
2012-7-4,98.8,83.9,72.3,85.3,78.7,72.1,99,86,59,29.85,29.68,16,4,16,0.12
2012-7-5,99.9,86.9,77.2,85.3,79.1,74.5,99,80,50,29.83,29.68,15,4,15,0.00
2012-7-6,93.0,82.1,69.3,83.6,77.6,69.0,99,87,64,29.90,29.81,8,2,8,0.00
2012-7-7,103.3,86.2,74.7,85.9,79.6,74.4,99,83,48,29.87,29.73,25,4,25,0.17
2012-7-8,95.2,82.2,73.4,82.2,77.3,73.2,99,87,61,29.84,29.77,8,2,8,0.01
2012-7-9,89.8,78.9,69.4,77.1,71.1,67.5,99,78,55,29.95,29.81,11,3,11,0.00
2012-7-10,91.4,77.3,67.5,79.0,73.2,67.2,99,88,57,30.06,29.94,9,2,9,0.00
2012-7-11,95.0,77.7,66.0,83.1,73.9,65.8,99,89,69,30.16,30.05,9,2,9,0.00
2012-7-12,90.0,79.9,65.7,77.9,72.8,65.4,99,80,60,30.18,30.12,9,2,9,0.00
2012-7-13,93.4,79.4,67.5,79.7,74.0,67.2,99,85,60,30.18,30.11,8,2,8,0.00
2012-7-14,88.9,78.3,71.1,77.3,74.6,70.8,99,89,66,30.19,30.11,11,3,11,0.00
2012-7-15,94.1,82.2,72.9,86.7,80.3,72.6,99,94,76,30.15,29.90,14,3,14,0.22
2012-7-16,95.9,86.5,71.1,83.9,81.4,70.8,99,86,64,29.88,29.76,15,4,15,0.48
2012-7-17,103.5,87.3,72.9,84.3,77.3,72.2,99,74,50,29.83,29.72,14,3,14,0.00
2012-7-18,106.9,87.0,74.3,90.4,82.0,74.1,99,86,60,29.86,29.72,25,4,25,0.40
2012-7-19,77.9,75.0,72.9,76.9,74.6,72.6,99,99,94,29.95,29.83,10,2,10,0.01
2012-7-20,75.2,70.2,65.3,74.8,69.9,65.0,99,99,92,30.01,29.87,21,6,21,0.48
2012-7-21,81.5,72.2,0.0,71.5,68.4,63.4,99,87,65,30.08,29.92,14,4,14,0.01
2012-7-22,86.4,74.4,60.4,77.7,70.0,60.2,99,87,67,30.08,29.92,8,2,8,0.00
2012-7-23,95.4,80.6,68.2,89.5,79.1,67.9,99,95,81,30.04,29.72,11,3,11,0.00
2012-7-24,99.3,82.1,75.7,85.1,76.4,69.2,99,85,53,29.73,29.48,13,4,13,0.00
2012-7-25,92.7,79.2,66.9,75.0,66.9,58.3,99,68,43,29.81,29.63,13,3,13,0.00
2012-7-26,98.1,80.0,68.4,87.0,76.8,67.7,99,91,69,29.75,29.53,30,4,30,0.38
2012-7-27,95.2,81.7,71.6,85.1,78.3,71.3,99,90,64,29.77,29.57,13,4,13,0.05
2012-7-28,90.5,78.2,71.2,89.6,77.8,71.0,99,99,87,29.88,29.75,14,1,14,0.60
2012-7-29,85.1,75.2,68.9,81.7,74.3,68.6,99,97,84,29.96,29.79,10,2,10,0.04
2012-7-30,85.6,75.5,67.1,78.9,73.6,66.8,99,94,78,30.04,29.95,10,3,10,0.00
2012-7-31,86.5,76.3,69.3,79.6,74.6,69.0,99,95,78,29.99,29.82,13,2,13,0.00
2012-8-1,90.1,76.4,69.6,85.7,75.6,69.4,99,97,83,29.86,29.74,7,1,7,0.01
2012-8-2,94.1,80.6,68.9,86.5,78.6,68.6,99,94,76,29.84,29.75,9,2,9,0.00
2012-8-3,95.4,83.0,74.3,89.0,81.2,73.9,99,94,78,30.02,29.83,8,3,8,0.00
2012-8-4,93.4,82.2,72.7,89.8,81.2,72.4,99,97,85,30.12,30.01,10,2,10,0.00
2012-8-5,96.6,86.2,73.4,89.9,84.2,73.1,99,94,74,30.11,29.88,31,4,31,0.69
2012-8-6,92.3,82.9,73.6,86.0,79.1,72.0,99,89,62,29.93,29.85,9,3,9,0.19
2012-8-7,91.9,77.0,65.5,78.5,73.1,65.2,99,88,71,29.93,29.87,8,1,8,0.00
2012-8-8,87.8,78.6,70.7,86.3,78.3,70.4,99,99,92,29.90,29.83,8,2,8,0.00
2012-8-9,92.5,80.9,71.4,88.0,79.3,71.2,99,95,76,29.88,29.77,11,2,11,0.00
2012-8-10,89.8,78.8,70.2,88.2,78.5,68.8,99,99,91,29.81,29.64,14,2,14,1.11
2012-8-11,90.0,78.8,73.9,88.2,78.4,73.5,99,99,88,29.83,29.68,8,2,8,0.08
2012-8-12,91.6,80.0,72.0,83.7,75.3,71.2,99,87,62,29.87,29.78,9,3,9,0.00
2012-8-13,90.7,77.3,66.0,75.5,70.7,65.8,99,82,53,29.93,29.85,11,3,11,0.00
2012-8-14,89.8,76.4,66.9,86.5,76.0,66.7,99,98,85,29.89,29.78,8,2,8,0.04
2012-8-15,93.6,77.2,67.8,86.4,76.0,67.6,99,96,74,29.80,29.72,14,2,14,0.77
2012-8-16,90.3,78.9,66.7,78.7,71.9,66.5,99,81,55,29.82,29.76,14,3,14,0.01
2012-8-17,93.7,79.6,66.6,83.4,75.4,66.1,99,88,60,29.82,29.68,12,3,12,0.00
2012-8-18,85.6,72.4,65.3,77.1,70.0,65.0,99,93,69,29.84,29.72,8,2,8,0.20
2012-8-19,82.6,71.1,60.1,72.5,65.4,59.8,99,84,55,29.89,29.82,7,1,7,0.00
2012-8-20,86.4,73.2,63.5,75.7,67.9,63.2,99,85,60,29.84,29.75,8,1,8,0.00
2012-8-21,84.6,73.6,65.5,75.0,69.7,65.2,99,89,66,30.00,29.83,8,2,8,0.00
2012-8-22,88.0,75.7,63.3,82.2,72.4,63.1,99,90,68,30.06,29.98,11,2,11,0.00
2012-8-23,90.3,75.5,63.3,81.3,71.9,63.1,99,90,64,30.08,30.02,9,1,9,0.00
2012-8-24,91.4,75.7,64.9,81.6,73.3,64.7,99,93,69,30.09,30.03,7,1,7,0.00
2012-8-25,84.9,75.9,68.4,83.6,75.5,68.1,99,99,93,30.18,30.08,12,3,12,0.00
2012-8-26,85.6,77.3,71.8,80.5,75.5,71.5,99,94,82,30.22,30.13,12,4,12,0.00
2012-8-27,88.7,77.7,70.3,86.6,77.4,69.9,99,99,93,30.13,29.87,11,2,11,0.69
2012-8-28,94.1,81.8,71.4,83.7,76.6,68.6,99,86,57,29.88,29.71,16,4,16,0.11
2012-8-29,85.8,73.9,64.9,71.8,67.4,64.1,99,82,54,29.93,29.80,9,2,9,0.00
2012-8-30,89.1,74.0,62.2,74.2,67.2,62.0,99,82,50,30.02,29.92,13,3,13,0.00
2012-8-31,95.9,79.8,65.1,82.6,71.9,64.9,99,80,42,29.99,29.81,12,4,12,0.00
2012-9-1,96.8,81.8,74.7,82.7,74.9,68.6,99,82,46,29.96,29.84,12,4,12,0.00
2012-9-2,86.5,77.8,72.5,82.8,77.1,72.2,99,98,88,29.99,29.91,13,2,13,0.05
2012-9-3,79.0,75.2,71.2,78.7,74.9,71.0,99,99,96,30.05,29.96,12,4,12,0.24
2012-9-4,83.5,74.9,70.0,83.3,74.7,69.7,99,99,99,29.99,29.77,13,2,13,1.29
2012-9-5,87.6,77.7,70.2,87.4,77.4,69.9,99,99,99,29.78,29.66,13,3,13,0.83
2012-9-6,87.3,72.8,65.1,81.8,72.6,64.9,99,99,99,29.82,29.73,5,1,5,0.01
2012-9-7,92.8,79.4,69.1,88.2,77.8,68.6,99,95,78,29.83,29.74,8,2,8,0.01
2012-9-8,87.3,76.4,64.2,87.0,76.2,64.0,99,99,98,29.79,29.49,17,4,17,0.40
2012-9-9,83.7,70.3,63.0,74.9,67.6,62.7,99,92,69,29.78,29.67,8,2,8,0.01
2012-9-10,83.1,66.4,57.2,63.9,58.0,52.2,99,77,50,30.05,29.78,15,4,15,0.00
2012-9-11,80.8,64.1,51.1,62.1,56.0,50.7,99,78,46,30.20,30.04,11,2,11,0.00
2012-9-12,85.1,71.4,56.3,69.3,63.3,56.0,99,78,52,30.28,30.19,8,2,8,0.00
2012-9-13,84.6,69.5,57.0,72.6,65.3,56.8,99,88,65,30.29,30.18,8,1,8,0.00
2012-9-14,83.8,70.4,57.6,75.9,67.7,57.3,99,92,69,30.20,29.99,11,2,11,0.00
2012-9-15,80.4,68.2,58.8,67.2,60.5,54.7,99,78,53,30.04,29.96,16,4,16,0.00
2012-9-16,79.9,65.9,55.4,63.8,58.1,54.8,98,78,48,30.06,29.94,10,2,10,0.00
2012-9-17,84.2,67.0,51.8,69.9,61.3,51.5,99,84,50,30.03,29.94,8,2,8,0.00
2012-9-18,81.3,74.1,68.0,81.1,73.8,67.7,99,99,99,29.95,29.58,21,6,21,1.33
2012-9-19,76.1,65.9,55.9,68.3,58.7,54.0,99,80,49,30.08,29.64,24,4,24,0.01
2012-9-20,78.3,65.1,55.0,72.5,63.2,54.3,99,94,75,30.10,30.00,10,2,10,0.00
2012-9-21,77.9,66.7,55.2,75.7,63.8,55.0,99,91,73,30.01,29.90,10,2,10,0.00
2012-9-22,82.0,71.9,56.3,78.9,71.0,56.0,99,97,89,29.91,29.69,13,4,13,0.14
2012-9-23,76.6,64.3,54.3,65.9,56.3,50.1,99,78,45,30.03,29.76,17,4,17,0.00
2012-9-24,73.2,58.9,49.3,56.4,51.1,48.1,99,78,45,30.09,30.01,12,4,12,0.00
2012-9-25,80.1,63.1,47.1,64.8,57.6,46.9,99,84,55,30.12,30.03,14,4,14,0.00
2012-9-26,82.4,72.1,64.6,73.8,69.1,63.6,99,91,69,30.07,29.91,14,4,14,0.00
2012-9-27,79.5,69.0,63.3,76.3,68.2,63.1,99,98,83,30.09,29.95,6,1,6,0.09
2012-9-28,85.5,72.5,65.7,81.2,71.8,65.2,99,98,86,30.05,29.81,9,2,9,0.04
2012-9-29,71.8,62.9,56.7,66.7,61.8,56.4,99,96,80,29.84,29.77,10,2,10,0.08
2012-9-30,73.8,62.0,54.7,65.7,58.1,54.4,99,89,61,29.78,29.67,12,3,12,0.01
2012-10-1,77.5,62.4,50.5,60.3,56.1,50.3,99,82,50,29.89,29.74,15,4,15,0.00
2012-10-2,76.6,67.8,60.8,72.4,67.1,60.2,99,97,83,29.92,29.83,8,1,8,0.24
2012-10-3,73.8,69.9,66.9,73.3,69.6,66.7,99,99,99,30.03,29.85,4,1,4,0.00
2012-10-4,77.5,70.8,66.7,77.3,70.5,66.5,99,99,99,30.04,29.93,7,1,7,0.06
2012-10-5,84.4,70.2,60.1,73.4,66.8,59.6,99,90,59,29.98,29.84,9,2,9,0.02
2012-10-6,82.8,67.5,52.3,74.1,64.6,52.1,99,91,68,29.91,29.65,16,4,16,0.00
2012-10-7,53.1,49.4,45.0,52.8,49.0,44.7,99,99,90,30.04,29.90,12,2,12,0.13
2012-10-8,59.0,49.9,42.3,55.3,49.2,42.0,99,98,79,30.20,30.02,8,2,8,0.01
2012-10-9,60.1,57.1,54.7,59.8,56.8,54.4,99,99,97,30.12,29.95,13,4,13,0.27
2012-10-10,71.8,62.9,55.8,68.1,60.3,47.6,99,92,68,29.95,29.71,17,5,17,0.79
2012-10-11,66.0,55.2,47.1,48.3,44.8,40.9,99,70,46,30.13,29.88,17,5,17,0.00
2012-10-12,62.8,50.8,43.2,52.2,43.1,32.2,99,77,54,30.35,30.00,17,5,17,0.00
2012-10-13,61.3,48.3,34.9,48.7,39.3,31.8,99,73,49,30.45,30.22,10,2,10,0.00
2012-10-14,77.9,62.8,48.9,66.6,59.0,48.7,99,89,58,30.24,29.86,17,5,17,0.00
2012-10-15,77.9,68.1,61.0,72.9,66.7,60.5,99,95,76,29.87,29.52,19,5,19,0.02
2012-10-16,64.6,55.3,44.8,60.5,49.5,43.3,99,83,52,29.83,29.56,17,5,17,0.01
2012-10-17,64.4,51.8,39.4,55.4,48.1,39.1,99,88,62,29.94,29.82,7,1,7,0.00
2012-10-18,72.0,58.2,40.6,69.0,56.4,40.4,99,94,75,29.95,29.81,11,2,11,0.00
2012-10-19,70.9,65.8,63.5,70.6,65.6,63.2,99,99,99,29.84,29.55,14,3,14,0.19
2012-10-20,73.2,62.9,52.5,70.4,57.8,48.6,99,85,55,29.75,29.55,14,4,14,0.01
2012-10-21,70.5,57.0,47.3,53.4,49.3,46.2,99,77,49,29.96,29.75,16,5,16,0.00
2012-10-22,72.0,58.3,48.2,53.3,50.6,47.4,99,77,50,30.04,29.93,15,5,15,0.00
2012-10-23,69.6,58.2,45.3,63.3,55.7,45.1,99,92,71,30.04,29.96,5,1,5,0.01
2012-10-24,63.0,60.4,57.9,62.7,60.1,57.7,99,99,99,30.09,29.98,9,2,9,0.00
2012-10-25,63.3,60.3,53.2,63.1,60.0,53.0,99,99,99,30.16,30.09,8,2,8,0.00
2012-10-26,70.3,62.1,55.4,69.9,61.9,55.1,99,99,98,30.14,30.00,8,1,8,0.00
2012-10-27,68.9,62.2,59.7,66.1,61.5,58.7,99,98,87,30.01,29.78,11,3,11,0.01
2012-10-28,59.9,58.2,55.8,58.9,57.2,53.2,99,96,80,29.79,29.48,21,6,21,0.05
2012-10-29,58.8,55.3,52.5,58.6,55.0,51.7,99,99,99,29.49,28.67,28,11,28,1.11
2012-11-3,51.3,44.9,38.7,38.7,36.2,33.6,88,72,61,29.88,29.70,12,7,12,0.00
2012-11-4,52.2,44.5,37.4,40.3,37.1,34.2,88,76,64,29.91,29.85,12,6,12,0.00
2012-11-5,50.5,41.3,33.8,34.8,30.9,25.7,78,67,49,30.09,29.87,9,5,9,0.00
2012-11-6,47.3,41.2,30.7,41.3,33.4,26.4,90,75,57,30.12,29.85,6,2,6,0.00
2012-11-7,43.0,36.7,32.2,41.0,36.0,31.9,99,97,90,29.81,29.68,8,3,8,0.38
2012-11-8,44.8,38.7,32.2,37.4,32.9,29.6,99,82,59,29.80,29.65,13,4,13,0.01
2012-11-9,55.0,44.0,35.6,36.8,34.0,30.0,80,69,45,30.09,29.83,14,5,14,0.00
2012-11-10,56.3,48.2,39.7,47.8,44.0,39.0,99,86,63,30.34,30.14,7,1,7,0.00
2012-11-11,70.2,52.4,37.2,63.9,51.0,37.0,99,95,78,30.40,30.32,9,2,9,0.00
2012-11-12,71.8,58.8,47.8,68.4,58.4,47.6,99,98,89,30.39,30.10,11,3,11,0.01
2012-11-13,59.9,48.9,36.7,59.6,47.7,35.8,99,96,84,30.35,30.02,16,4,16,0.11
2012-11-14,50.7,41.3,35.1,41.3,36.5,31.7,99,84,66,30.42,30.34,11,3,11,0.00
2012-11-15,46.8,40.7,35.8,42.5,38.3,35.5,99,92,77,30.37,30.20,10,2,10,0.00
2012-11-16,51.1,38.4,32.7,39.4,34.6,31.2,99,87,58,30.34,30.19,5,1,5,0.00
2012-11-17,56.7,42.6,32.4,45.5,37.9,30.8,99,85,64,30.54,30.34,12,2,12,0.00
2012-11-18,54.7,46.8,34.9,50.4,45.0,34.6,99,93,80,30.56,30.44,13,3,13,0.00
2012-11-19,50.4,47.2,43.5,48.7,46.8,43.1,99,98,89,30.44,30.14,14,4,14,0.00
2012-11-20,54.9,45.4,37.4,48.3,43.0,37.1,99,92,63,30.14,30.01,8,2,8,0.00
2012-11-21,58.5,44.8,35.2,48.5,41.0,34.6,99,88,56,30.14,30.03,13,1,13,0.00
2012-11-22,59.5,44.5,35.1,54.0,43.0,34.8,99,95,70,30.18,30.04,8,1,8,0.00
2012-11-23,60.8,46.2,34.3,57.2,45.4,34.1,99,97,85,30.04,29.60,8,2,8,0.05
2012-11-24,48.6,41.5,36.0,48.3,31.7,27.2,99,69,51,29.80,29.58,24,9,24,0.00
2012-11-25,44.4,36.6,31.6,30.6,28.0,24.2,87,71,56,29.91,29.78,19,6,19,0.00
2012-11-26,52.2,38.6,30.4,34.9,30.0,26.9,99,73,45,30.18,29.89,20,3,20,0.00
2012-11-27,42.8,38.9,30.4,41.8,38.5,30.1,99,98,89,30.21,30.08,11,2,11,0.46
2012-11-28,46.4,38.0,31.6,39.7,32.1,26.8,99,80,56,30.23,30.08,17,4,17,0.00
2012-11-29,48.4,37.8,30.2,33.5,30.2,27.1,93,75,53,30.31,30.20,17,5,17,0.00
2012-11-30,50.4,41.5,29.8,45.8,38.7,29.6,99,90,64,30.33,30.24,8,2,8,0.00
2012-12-1,51.6,45.9,43.0,51.4,45.7,42.7,99,99,99,30.40,30.31,14,3,14,0.00
2012-12-2,59.4,47.7,40.1,58.0,47.4,39.8,99,99,90,30.32,30.03,10,3,10,0.07
2012-12-3,67.3,54.1,43.7,61.2,52.2,43.3,99,94,72,30.18,30.02,9,3,9,0.00
2012-12-4,67.3,54.0,43.5,65.0,53.6,43.3,99,98,91,30.19,29.90,9,2,9,0.00
2012-12-5,58.5,51.7,34.7,58.2,44.9,23.2,99,79,56,30.16,29.82,19,7,19,0.00
2012-12-6,46.8,34.1,27.1,31.0,25.8,23.1,99,73,49,30.29,30.15,11,2,11,0.00
2012-12-7,47.8,40.6,28.8,47.6,40.4,28.3,99,99,99,30.22,29.92,8,1,8,0.15
2012-12-8,54.0,50.1,46.6,53.7,49.8,46.3,99,99,99,29.93,29.78,11,2,11,0.45
2012-12-9,54.9,48.2,44.2,54.6,47.9,43.4,99,99,99,30.15,29.89,9,2,9,0.26
2012-12-10,62.4,57.6,52.9,62.2,57.3,52.4,99,99,99,29.90,29.45,7,2,7,0.09
2012-12-11,60.8,47.2,40.8,60.5,45.0,38.4,99,92,72,30.11,29.47,16,4,16,0.07
2012-12-12,48.2,39.9,33.8,38.4,33.6,30.2,99,79,53,30.35,30.10,11,2,11,0.00
2012-12-13,51.4,39.1,28.8,37.8,33.3,28.5,99,82,55,30.37,30.24,9,2,9,0.00
2012-12-14,53.1,39.7,28.2,37.8,32.9,28.0,99,79,50,30.24,30.07,14,4,14,0.00
2012-12-15,51.8,41.3,30.9,44.9,37.0,30.7,99,85,70,30.23,30.14,8,2,8,0.00
2012-12-16,53.2,50.2,47.7,52.8,49.9,47.4,99,99,99,30.05,29.78,10,2,10,0.30
2012-12-17,52.0,46.5,42.1,51.5,46.2,41.8,99,99,99,29.80,29.50,9,2,9,0.11
2012-12-18,61.2,52.2,42.3,57.8,50.9,40.7,99,95,77,29.55,29.36,27,8,27,0.18
2012-12-19,52.5,44.3,37.9,40.7,35.7,31.4,94,73,54,30.04,29.55,24,8,24,0.01
2012-12-20,50.9,41.3,30.9,50.6,38.7,28.5,99,90,76,30.13,29.67,11,2,11,0.00
2012-12-21,56.7,46.5,36.7,56.4,43.7,32.7,99,90,77,29.67,29.04,25,11,25,0.47
2012-12-22,42.8,38.5,35.1,36.2,29.4,25.1,99,71,54,29.78,29.27,37,12,37,0.15
2012-12-23,45.1,37.6,30.2,33.2,28.9,25.3,85,71,53,29.91,29.78,17,6,17,0.00
2012-12-24,45.0,36.8,27.3,42.2,31.9,24.8,99,83,57,30.01,29.81,8,2,8,0.14
2012-12-25,47.5,40.1,33.3,43.4,38.2,31.6,99,93,79,30.16,29.78,15,4,15,0.02
2012-12-26,44.6,36.3,30.4,44.3,36.0,30.1,99,99,95,30.19,29.67,27,4,27,0.31
2012-12-27,48.2,36.6,30.7,47.9,33.3,25.9,99,88,80,29.77,29.12,29,12,29,1.25
2012-12-28,42.1,33.5,27.5,32.3,28.5,24.8,99,82,65,30.01,29.77,17,5,17,0.00
2012-12-29,42.3,34.4,27.9,42.0,34.1,27.6,99,99,99,29.96,29.39,14,2,14,0.18
2012-12-30,40.5,33.5,28.8,32.3,24.1,17.0,99,70,52,30.14,29.51,27,8,27,0.24
2012-12-31,41.2,34.5,27.9,33.9,26.9,17.4,87,73,62,30.16,29.82,17,6,17,0.00
2013-1-1,42.1,38.9,29.5,35.9,32.4,19.9,89,77,62,29.94,29.74,17,6,17,0.00